Time;durP1;ratioP1;P1;durP2;ratioP2;P2;SDS_P1;SDS_P2;PMS_P1;PMS_P2;Temp;Humidity;BMP_temperature;BMP_pressure;BME280_temperature;BME280_humidity;BME280_pressure;Samples;Min_cycle;Max_cycle;Signal;HPM_P1;HPM_P2
2024/03/19 00:00:57;;;;;;;19.25;5.18;;;;;;;;;;5018424;28;20092;-62
2024/03/19 00:03:23;;;;;;;18.65;5.07;;;;;;;;;;5011162;28;20088;-63
2024/03/19 00:05:50;;;;;;;16.20;4.90;;;;;;;;;;4997313;28;20038;-62
2024/03/19 00:08:16;;;;;;;15.80;6.25;;;;;;;;;;4998680;28;20184;-62
2024/03/19 00:10:42;;;;;;;15.38;4.80;;;;;;;;;;5015067;28;20057;-62
2024/03/19 00:13:08;;;;;;;14.18;5.05;;;;;;;;;;5008389;28;20506;-62
2024/03/19 00:15:35;;;;;;;14.90;5.78;;;;;;;;;;5011565;28;20064;-63
2024/03/19 00:18:01;;;;;;;16.50;5.60;;;;;;;;;;5013221;28;20560;-62
2024/03/19 00:20:27;;;;;;;14.18;6.43;;;;;;;;;;5011840;28;20129;-62
2024/03/19 00:22:53;;;;;;;16.60;6.22;;;;;;;;;;5006470;28;21558;-62
2024/03/19 00:25:19;;;;;;;22.35;7.30;;;;;;;;;;5015847;28;20133;-62
2024/03/19 00:27:45;;;;;;;15.55;7.20;;;;;;;;;;5016926;28;20128;-63
2024/03/19 00:30:13;;;;;;;21.52;8.10;;;;;;;;;;5018091;28;20403;-62
2024/03/19 00:32:39;;;;;;;17.30;7.75;;;;;;;;;;5019051;28;20052;-63
2024/03/19 00:35:09;;;;;;;21.55;8.13;;;;;;;;;;5017341;28;20090;-62
2024/03/19 00:37:36;;;;;;;19.27;8.32;;;;;;;;;;5010929;28;20486;-62
2024/03/19 00:40:04;;;;;;;23.05;7.53;;;;;;;;;;5032577;28;20068;-62
2024/03/19 00:42:31;;;;;;;23.02;8.00;;;;;;;;;;5016353;28;20104;-62
2024/03/19 00:44:58;;;;;;;26.00;8.18;;;;;;;;;;5015252;28;20113;-63
2024/03/19 00:47:25;;;;;;;22.23;7.88;;;;;;;;;;5017162;28;20117;-62
2024/03/19 00:49:52;;;;;;;20.45;7.80;;;;;;;;;;5017469;28;20045;-63
2024/03/19 00:52:18;;;;;;;16.38;7.63;;;;;;;;;;5016942;28;20461;-62
2024/03/19 00:54:44;;;;;;;20.85;7.70;;;;;;;;;;5017860;28;20100;-63
2024/03/19 00:57:10;;;;;;;15.75;7.47;;;;;;;;;;5015672;28;20033;-63
2024/03/19 00:59:37;;;;;;;22.65;7.82;;;;;;;;;;5019925;28;20037;-62
2024/03/19 01:02:03;;;;;;;25.58;8.82;;;;;;;;;;5018895;28;20065;-63
2024/03/19 01:04:29;;;;;;;19.20;7.05;;;;;;;;;;4995704;28;20083;-62
2024/03/19 01:06:56;;;;;;;19.38;8.38;;;;;;;;;;4998667;28;20058;-63
2024/03/19 01:09:22;;;;;;;19.23;7.63;;;;;;;;;;4998173;28;20132;-63
2024/03/19 01:11:48;;;;;;;17.42;7.50;;;;;;;;;;4999477;28;20456;-63
2024/03/19 01:14:15;;;;;;;20.00;8.80;;;;;;;;;;5017315;28;20049;-62
2024/03/19 01:16:41;;;;;;;22.90;7.63;;;;;;;;;;5017643;28;20117;-63
2024/03/19 01:19:07;;;;;;;22.85;7.57;;;;;;;;;;5016669;28;20418;-63
2024/03/19 01:21:33;;;;;;;23.27;8.48;;;;;;;;;;5015839;28;20042;-62
2024/03/19 01:24:00;;;;;;;20.02;7.35;;;;;;;;;;5015671;28;20798;-62
2024/03/19 01:26:26;;;;;;;18.75;7.68;;;;;;;;;;5016601;28;20049;-63
2024/03/19 01:28:52;;;;;;;17.75;7.40;;;;;;;;;;5006942;28;20407;-63
2024/03/19 01:31:18;;;;;;;18.40;7.72;;;;;;;;;;5014088;28;20103;-63
2024/03/19 01:33:44;;;;;;;20.52;7.65;;;;;;;;;;5017359;28;20362;-62
2024/03/19 01:36:10;;;;;;;25.48;8.35;;;;;;;;;;5007096;28;20218;-62
2024/03/19 01:38:37;;;;;;;21.95;8.77;;;;;;;;;;5015780;28;20058;-62
2024/03/19 01:41:04;;;;;;;21.92;8.13;;;;;;;;;;5015046;28;20976;-63
2024/03/19 01:43:30;;;;;;;20.70;8.07;;;;;;;;;;5013529;28;20084;-62
2024/03/19 01:46:07;;;;;;;23.77;9.20;;;;;;;;;;5012287;28;20153;-62
2024/03/19 01:48:33;;;;;;;23.35;9.07;;;;;;;;;;5012283;28;20137;-63
2024/03/19 01:51:00;;;;;;;23.77;8.25;;;;;;;;;;5023002;28;20069;-62
2024/03/19 01:53:27;;;;;;;28.85;9.82;;;;;;;;;;5014630;28;20048;-62
2024/03/19 01:55:53;;;;;;;31.27;9.98;;;;;;;;;;5014146;28;20341;-63
2024/03/19 01:58:21;;;;;;;28.50;11.35;;;;;;;;;;5017940;28;20068;-62
2024/03/19 02:00:48;;;;;;;28.52;10.90;;;;;;;;;;5020532;28;20042;-62
2024/03/19 02:03:15;;;;;;;29.63;11.20;;;;;;;;;;5023432;28;20053;-62
2024/03/19 02:05:43;;;;;;;36.15;12.35;;;;;;;;;;5021424;28;20037;-62
2024/03/19 02:08:10;;;;;;;24.27;11.43;;;;;;;;;;5020889;28;20076;-63
2024/03/19 02:10:36;;;;;;;26.60;12.10;;;;;;;;;;5020808;28;20084;-62
2024/03/19 02:13:02;;;;;;;30.60;12.50;;;;;;;;;;5018843;28;20048;-62
2024/03/19 02:15:28;;;;;;;35.78;12.85;;;;;;;;;;5018364;28;20046;-62
2024/03/19 02:17:54;;;;;;;26.67;12.45;;;;;;;;;;5015178;28;20052;-62
2024/03/19 02:20:21;;;;;;;35.92;13.88;;;;;;;;;;5019740;28;20460;-62
2024/03/19 02:22:47;;;;;;;35.17;14.45;;;;;;;;;;5021339;28;20098;-63
2024/03/19 02:25:14;;;;;;;39.03;15.18;;;;;;;;;;5029133;28;20133;-63
2024/03/19 02:27:40;;;;;;;32.13;13.27;;;;;;;;;;5022444;28;20401;-63
2024/03/19 02:30:08;;;;;;;32.13;14.32;;;;;;;;;;5020110;28;20490;-63
2024/03/19 02:32:34;;;;;;;26.58;12.68;;;;;;;;;;5017142;28;20053;-62
2024/03/19 02:35:01;;;;;;;29.48;13.70;;;;;;;;;;5015115;28;20088;-62
2024/03/19 02:37:27;;;;;;;38.67;14.63;;;;;;;;;;5020050;28;20033;-62
2024/03/19 02:39:53;;;;;;;33.95;14.07;;;;;;;;;;5013645;28;20457;-62
2024/03/19 02:42:20;;;;;;;29.20;13.77;;;;;;;;;;5021570;28;20087;-62
2024/03/19 02:44:46;;;;;;;34.55;13.88;;;;;;;;;;5016659;28;20399;-63
2024/03/19 02:47:12;;;;;;;31.98;14.07;;;;;;;;;;5020938;28;20038;-62
2024/03/19 02:49:38;;;;;;;34.30;13.50;;;;;;;;;;5023667;28;20049;-62
2024/03/19 02:52:05;;;;;;;30.42;13.65;;;;;;;;;;5020569;28;20073;-62
2024/03/19 02:54:31;;;;;;;28.77;13.13;;;;;;;;;;5017831;28;20045;-63
2024/03/19 02:56:57;;;;;;;33.25;13.60;;;;;;;;;;5022741;28;20041;-63
2024/03/19 02:59:24;;;;;;;31.52;13.40;;;;;;;;;;5023442;28;20478;-62
2024/03/19 03:01:50;;;;;;;26.88;13.20;;;;;;;;;;5020336;28;20038;-63
2024/03/19 03:04:16;;;;;;;29.40;13.70;;;;;;;;;;5023469;28;20046;-63
2024/03/19 03:06:42;;;;;;;30.90;13.30;;;;;;;;;;5016199;28;20405;-63
2024/03/19 03:09:09;;;;;;;31.33;13.20;;;;;;;;;;5014722;28;20446;-62
2024/03/19 03:11:36;;;;;;;34.50;13.55;;;;;;;;;;5008036;28;20045;-63
2024/03/19 03:14:03;;;;;;;25.13;12.82;;;;;;;;;;5023165;28;20489;-63
2024/03/19 03:16:29;;;;;;;30.73;12.90;;;;;;;;;;5012560;28;20056;-62
2024/03/19 03:18:56;;;;;;;24.58;13.02;;;;;;;;;;5013962;28;20045;-62
2024/03/19 03:21:22;;;;;;;24.13;13.68;;;;;;;;;;5012978;28;20116;-63
2024/03/19 03:23:48;;;;;;;31.95;14.13;;;;;;;;;;5005411;28;20099;-62
2024/03/19 03:26:15;;;;;;;27.65;13.43;;;;;;;;;;5009084;28;20060;-63
2024/03/19 03:28:41;;;;;;;30.55;13.48;;;;;;;;;;5012170;28;20127;-63
2024/03/19 03:31:07;;;;;;;23.52;13.05;;;;;;;;;;5014974;28;20072;-63
2024/03/19 03:33:34;;;;;;;36.60;14.27;;;;;;;;;;5009923;28;20068;-62
2024/03/19 03:36:00;;;;;;;31.25;15.20;;;;;;;;;;5011260;28;20393;-63
2024/03/19 03:38:26;;;;;;;25.77;13.73;;;;;;;;;;5016792;28;20064;-63
2024/03/19 03:40:53;;;;;;;28.65;14.75;;;;;;;;;;5016943;28;20113;-63
2024/03/19 03:43:20;;;;;;;33.30;14.73;;;;;;;;;;4999514;28;20067;-63
2024/03/19 03:45:47;;;;;;;27.13;13.43;;;;;;;;;;5015918;28;20049;-63
2024/03/19 03:48:13;;;;;;;38.60;15.88;;;;;;;;;;5017087;28;20405;-63
2024/03/19 03:50:39;;;;;;;32.17;15.07;;;;;;;;;;5018058;28;20465;-62
2024/03/19 03:53:05;;;;;;;33.30;15.45;;;;;;;;;;5010256;28;20337;-62
2024/03/19 03:55:31;;;;;;;38.47;14.63;;;;;;;;;;5016734;28;21780;-63
2024/03/19 03:57:57;;;;;;;29.35;14.35;;;;;;;;;;5020300;28;20044;-62
2024/03/19 04:00:24;;;;;;;32.80;15.65;;;;;;;;;;5019624;28;20037;-63
2024/03/19 04:02:51;;;;;;;29.17;14.13;;;;;;;;;;5022274;28;20411;-62
2024/03/19 04:05:17;;;;;;;30.40;15.38;;;;;;;;;;5012491;28;20041;-63
2024/03/19 04:07:44;;;;;;;30.45;14.82;;;;;;;;;;5018536;28;20121;-63
2024/03/19 04:10:12;;;;;;;35.85;15.32;;;;;;;;;;5017062;28;20119;-62
2024/03/19 04:12:38;;;;;;;34.28;14.70;;;;;;;;;;5013588;28;20041;-62
2024/03/19 04:15:06;;;;;;;40.47;16.67;;;;;;;;;;5021896;28;20045;-63
2024/03/19 04:17:33;;;;;;;35.35;15.15;;;;;;;;;;5020043;28;20057;-62
2024/03/19 04:19:59;;;;;;;32.45;15.35;;;;;;;;;;5019491;28;20049;-63
2024/03/19 04:22:26;;;;;;;31.05;14.68;;;;;;;;;;5019114;28;20067;-62
2024/03/19 04:24:52;;;;;;;35.03;14.98;;;;;;;;;;5017873;28;20577;-62
2024/03/19 04:27:19;;;;;;;34.67;16.05;;;;;;;;;;5015797;28;20037;-63
2024/03/19 04:29:47;;;;;;;33.72;15.48;;;;;;;;;;5019717;28;20148;-62
2024/03/19 04:32:13;;;;;;;31.90;16.20;;;;;;;;;;5017238;28;20114;-62
2024/03/19 04:34:39;;;;;;;34.45;16.05;;;;;;;;;;5013360;28;20137;-63
2024/03/19 04:37:05;;;;;;;33.58;15.05;;;;;;;;;;5030864;28;20136;-62
2024/03/19 04:39:31;;;;;;;37.22;15.45;;;;;;;;;;5010844;28;20069;-63
2024/03/19 04:41:57;;;;;;;30.13;15.00;;;;;;;;;;5013826;28;20428;-63
2024/03/19 04:44:24;;;;;;;30.17;15.75;;;;;;;;;;5015362;28;20037;-63
2024/03/19 04:46:50;;;;;;;31.65;15.05;;;;;;;;;;5011495;28;20095;-63
2024/03/19 04:49:16;;;;;;;33.35;15.27;;;;;;;;;;5017653;28;20730;-62
2024/03/19 04:51:42;;;;;;;29.30;14.32;;;;;;;;;;5022020;28;20041;-62
2024/03/19 04:54:09;;;;;;;28.50;14.80;;;;;;;;;;5016528;28;20119;-62
2024/03/19 04:56:35;;;;;;;34.50;15.40;;;;;;;;;;5018283;28;20044;-63
2024/03/19 04:59:01;;;;;;;39.65;15.40;;;;;;;;;;5012907;28;20053;-63
2024/03/19 05:01:28;;;;;;;32.00;14.43;;;;;;;;;;5016594;28;20138;-63
2024/03/19 05:03:54;;;;;;;37.95;14.63;;;;;;;;;;5024021;28;20045;-62
2024/03/19 05:06:20;;;;;;;36.63;15.43;;;;;;;;;;5016439;28;20049;-62
2024/03/19 05:08:47;;;;;;;31.90;14.93;;;;;;;;;;5017278;28;20087;-62
2024/03/19 05:11:13;;;;;;;34.35;15.10;;;;;;;;;;5017038;28;20038;-63
2024/03/19 05:13:39;;;;;;;41.55;16.05;;;;;;;;;;5016734;28;20525;-62
2024/03/19 05:16:05;;;;;;;35.10;16.90;;;;;;;;;;5010907;28;20072;-63
2024/03/19 05:18:31;;;;;;;36.10;16.30;;;;;;;;;;5019303;28;20044;-63
2024/03/19 05:20:58;;;;;;;26.00;13.75;;;;;;;;;;5012659;28;20497;-63
2024/03/19 05:23:24;;;;;;;29.80;15.55;;;;;;;;;;5012818;28;20061;-63
2024/03/19 05:25:51;;;;;;;31.02;14.38;;;;;;;;;;5017491;28;20171;-63
2024/03/19 05:28:17;;;;;;;31.27;14.77;;;;;;;;;;5028838;28;20136;-63
2024/03/19 05:30:43;;;;;;;26.58;13.38;;;;;;;;;;5016024;28;20049;-63
2024/03/19 05:33:10;;;;;;;32.13;15.43;;;;;;;;;;5010406;28;20092;-63
2024/03/19 05:35:36;;;;;;;27.63;14.48;;;;;;;;;;5016398;28;20125;-62
2024/03/19 05:38:02;;;;;;;33.78;16.15;;;;;;;;;;5014890;28;20442;-62
2024/03/19 05:40:29;;;;;;;33.65;13.98;;;;;;;;;;5016542;28;20129;-63
2024/03/19 05:42:56;;;;;;;26.65;14.63;;;;;;;;;;5017668;28;20077;-63
2024/03/19 05:45:22;;;;;;;33.25;14.38;;;;;;;;;;5016631;28;20480;-63
2024/03/19 05:47:48;;;;;;;30.45;14.93;;;;;;;;;;5017165;28;20140;-63
2024/03/19 05:50:14;;;;;;;28.00;13.65;;;;;;;;;;5008183;28;20406;-63
2024/03/19 05:52:42;;;;;;;29.65;14.55;;;;;;;;;;5019340;28;20054;-63
2024/03/19 05:55:09;;;;;;;29.15;13.45;;;;;;;;;;5019702;28;20085;-63
2024/03/19 05:57:36;;;;;;;27.58;13.95;;;;;;;;;;5015186;28;20041;-62
2024/03/19 06:00:04;;;;;;;34.53;13.30;;;;;;;;;;5017148;28;20136;-62
2024/03/19 06:02:30;;;;;;;30.42;15.05;;;;;;;;;;5010287;28;20053;-63
2024/03/19 06:04:57;;;;;;;35.60;15.40;;;;;;;;;;5017248;28;20082;-63
2024/03/19 06:07:23;;;;;;;30.63;14.38;;;;;;;;;;5017372;28;20371;-63
2024/03/19 06:09:49;;;;;;;24.58;13.65;;;;;;;;;;5014852;28;20184;-63
2024/03/19 06:12:15;;;;;;;29.42;13.63;;;;;;;;;;5015268;28;20041;-63
2024/03/19 06:14:41;;;;;;;26.58;14.35;;;;;;;;;;5024911;28;20136;-62
2024/03/19 06:17:08;;;;;;;31.98;13.70;;;;;;;;;;5022835;28;20037;-62
2024/03/19 06:19:34;;;;;;;24.83;13.25;;;;;;;;;;5025550;28;20115;-63
2024/03/19 06:22:00;;;;;;;32.85;13.50;;;;;;;;;;5024984;28;20046;-62
2024/03/19 06:24:27;;;;;;;29.90;14.13;;;;;;;;;;5020674;28;20052;-62
2024/03/19 06:26:53;;;;;;;30.60;14.25;;;;;;;;;;5015446;28;20184;-62
2024/03/19 06:29:20;;;;;;;30.80;15.07;;;;;;;;;;5000238;28;20048;-62
2024/03/19 06:31:46;;;;;;;33.22;14.55;;;;;;;;;;5022757;28;20116;-62
2024/03/19 06:34:12;;;;;;;30.33;15.18;;;;;;;;;;5021483;28;20095;-62
2024/03/19 06:36:38;;;;;;;31.25;13.77;;;;;;;;;;5022948;28;20048;-62
2024/03/19 06:39:04;;;;;;;29.63;14.98;;;;;;;;;;5025551;28;20052;-62
2024/03/19 06:41:31;;;;;;;30.10;14.88;;;;;;;;;;5027193;28;20398;-62
2024/03/19 06:43:58;;;;;;;29.90;15.55;;;;;;;;;;5028259;28;20108;-63
2024/03/19 06:46:24;;;;;;;28.33;14.23;;;;;;;;;;5026670;28;20086;-63
2024/03/19 06:48:50;;;;;;;27.25;14.27;;;;;;;;;;5027942;28;20056;-63
2024/03/19 06:51:16;;;;;;;23.85;13.52;;;;;;;;;;5024497;28;20346;-66
2024/03/19 06:53:43;;;;;;;32.28;14.10;;;;;;;;;;5027285;28;20041;-64
2024/03/19 06:56:10;;;;;;;30.20;13.38;;;;;;;;;;5027612;28;20092;-64
2024/03/19 06:58:36;;;;;;;29.90;14.45;;;;;;;;;;5028119;28;20080;-64
2024/03/19 07:01:03;;;;;;;28.35;13.90;;;;;;;;;;5026329;28;20129;-64
2024/03/19 07:03:29;;;;;;;29.65;13.98;;;;;;;;;;5026414;28;20083;-64
2024/03/19 07:05:56;;;;;;;27.92;14.60;;;;;;;;;;5027582;28;20041;-64
2024/03/19 07:08:24;;;;;;;29.55;14.48;;;;;;;;;;5027281;28;20052;-64
2024/03/19 07:10:51;;;;;;;31.35;13.93;;;;;;;;;;5025596;28;20371;-64
2024/03/19 07:13:18;;;;;;;27.77;14.38;;;;;;;;;;5025756;28;20520;-64
2024/03/19 07:15:44;;;;;;;29.15;14.15;;;;;;;;;;5027635;28;20740;-64
2024/03/19 07:18:11;;;;;;;27.55;14.32;;;;;;;;;;5024094;28;20401;-64
2024/03/19 07:20:38;;;;;;;28.35;13.70;;;;;;;;;;5022790;28;20048;-64
2024/03/19 07:23:05;;;;;;;24.45;13.25;;;;;;;;;;5024850;28;20050;-64
2024/03/19 07:25:33;;;;;;;27.10;14.23;;;;;;;;;;5023039;28;20049;-64
2024/03/19 07:28:00;;;;;;;27.30;13.30;;;;;;;;;;5023965;28;20053;-64
2024/03/19 07:30:26;;;;;;;32.78;13.65;;;;;;;;;;5021988;28;20077;-64
2024/03/19 07:32:55;;;;;;;25.17;13.10;;;;;;;;;;5023721;28;20056;-64
2024/03/19 07:35:22;;;;;;;27.27;14.15;;;;;;;;;;5020231;28;20050;-64
2024/03/19 07:37:54;;;;;;;24.13;12.95;;;;;;;;;;5017736;28;20041;-64
2024/03/19 07:40:20;;;;;;;25.27;13.80;;;;;;;;;;5022594;28;20049;-64
2024/03/19 07:42:49;;;;;;;33.28;13.73;;;;;;;;;;5023659;28;20404;-64
2024/03/19 07:45:16;;;;;;;23.73;12.75;;;;;;;;;;5022481;28;20049;-64
2024/03/19 07:47:42;;;;;;;29.77;14.00;;;;;;;;;;5020092;28;20212;-64
2024/03/19 07:50:10;;;;;;;25.20;13.70;;;;;;;;;;5019498;28;20076;-64
2024/03/19 07:52:36;;;;;;;29.75;15.25;;;;;;;;;;5015364;28;20058;-64
2024/03/19 07:55:04;;;;;;;25.70;14.52;;;;;;;;;;5018379;28;20053;-64
2024/03/19 07:57:30;;;;;;;26.08;14.25;;;;;;;;;;5015327;28;20086;-64
2024/03/19 07:59:58;;;;;;;30.38;13.90;;;;;;;;;;5022253;28;20045;-64
2024/03/19 08:02:24;;;;;;;22.80;13.35;;;;;;;;;;5004059;28;20129;-64
2024/03/19 08:04:51;;;;;;;22.50;12.73;;;;;;;;;;5019982;28;20098;-64
2024/03/19 08:07:17;;;;;;;21.83;12.90;;;;;;;;;;5018233;28;21442;-64
2024/03/19 08:09:44;;;;;;;22.08;12.93;;;;;;;;;;5023988;28;20482;-64
2024/03/19 08:12:11;;;;;;;20.50;11.85;;;;;;;;;;5019477;28;20052;-64
2024/03/19 08:14:37;;;;;;;20.45;12.68;;;;;;;;;;5022034;28;20038;-65
2024/03/19 08:17:03;;;;;;;20.85;11.43;;;;;;;;;;5020035;28;20378;-65
2024/03/19 08:19:30;;;;;;;24.17;11.77;;;;;;;;;;5021746;28;20056;-64
2024/03/19 08:21:56;;;;;;;20.35;11.48;;;;;;;;;;5021817;28;20046;-65
2024/03/19 08:24:22;;;;;;;22.02;9.75;;;;;;;;;;5019838;28;20053;-64
2024/03/19 08:26:49;;;;;;;21.33;10.65;;;;;;;;;;5018496;28;20049;-64
2024/03/19 08:29:15;;;;;;;17.77;10.30;;;;;;;;;;5018793;28;20120;-64
2024/03/19 08:31:41;;;;;;;18.90;10.57;;;;;;;;;;5021554;28;20108;-64
2024/03/19 08:34:08;;;;;;;18.60;9.18;;;;;;;;;;5022701;28;20049;-65
2024/03/19 08:36:34;;;;;;;16.73;10.32;;;;;;;;;;5022186;28;20497;-65
2024/03/19 08:39:00;;;;;;;25.15;11.13;;;;;;;;;;5021951;28;20038;-65
2024/03/19 08:41:26;;;;;;;19.35;8.30;;;;;;;;;;5024748;28;20049;-64
2024/03/19 08:43:53;;;;;;;13.68;8.07;;;;;;;;;;5027811;28;20041;-64
2024/03/19 08:46:20;;;;;;;18.30;7.75;;;;;;;;;;5029893;28;20493;-65
2024/03/19 08:48:46;;;;;;;18.02;7.85;;;;;;;;;;5026985;28;20037;-65
2024/03/19 08:51:13;;;;;;;16.05;6.93;;;;;;;;;;5034738;28;20378;-64
2024/03/19 08:53:39;;;;;;;18.63;6.80;;;;;;;;;;5038550;28;20107;-64
2024/03/19 08:56:06;;;;;;;12.45;6.70;;;;;;;;;;5026985;28;20052;-64
2024/03/19 08:58:32;;;;;;;16.38;7.15;;;;;;;;;;5023688;28;20053;-64
2024/03/19 09:00:58;;;;;;;14.55;6.65;;;;;;;;;;5024961;28;20436;-66
2024/03/19 09:03:24;;;;;;;13.40;7.20;;;;;;;;;;5028665;28;20036;-65
2024/03/19 09:05:55;;;;;;;17.48;6.00;;;;;;;;;;5028377;28;20038;-65
2024/03/19 09:08:22;;;;;;;16.20;7.28;;;;;;;;;;5025993;28;20045;-67
2024/03/19 09:10:48;;;;;;;13.07;7.07;;;;;;;;;;5028210;28;20120;-65
2024/03/19 09:13:14;;;;;;;13.55;6.85;;;;;;;;;;5032044;28;20041;-65
2024/03/19 09:15:41;;;;;;;14.35;7.25;;;;;;;;;;5025505;28;20492;-67
2024/03/19 09:18:07;;;;;;;16.85;7.18;;;;;;;;;;5015760;28;20053;-64
2024/03/19 09:20:34;;;;;;;11.82;7.25;;;;;;;;;;5016861;28;20058;-65
2024/03/19 09:23:00;;;;;;;14.93;7.13;;;;;;;;;;5022392;28;20400;-65
2024/03/19 09:25:26;;;;;;;14.15;6.00;;;;;;;;;;5025617;28;20049;-65
2024/03/19 09:27:52;;;;;;;12.10;6.60;;;;;;;;;;5024034;28;20393;-65
2024/03/19 09:30:18;;;;;;;14.20;6.90;;;;;;;;;;5022947;28;20049;-65
2024/03/19 09:32:45;;;;;;;16.48;7.10;;;;;;;;;;5020081;28;21479;-65
2024/03/19 09:35:11;;;;;;;15.25;6.57;;;;;;;;;;5019000;28;20459;-65
2024/03/19 09:37:37;;;;;;;13.45;6.30;;;;;;;;;;5022167;28;20500;-66
2024/03/19 09:40:08;;;;;;;14.45;6.25;;;;;;;;;;5024591;28;20056;-65
2024/03/19 09:42:34;;;;;;;15.25;5.85;;;;;;;;;;5023663;28;20041;-65
2024/03/19 09:45:00;;;;;;;13.98;6.68;;;;;;;;;;5027808;28;20923;-65
2024/03/19 09:47:27;;;;;;;11.98;6.03;;;;;;;;;;5024208;28;20041;-65
2024/03/19 09:49:53;;;;;;;13.02;6.03;;;;;;;;;;5025336;28;20485;-65
2024/03/19 09:52:22;;;;;;;12.25;6.25;;;;;;;;;;5028473;28;20059;-66
2024/03/19 09:54:48;;;;;;;11.18;5.05;;;;;;;;;;5024489;28;20387;-65
2024/03/19 09:57:17;;;;;;;11.95;5.68;;;;;;;;;;5024115;28;20045;-65
2024/03/19 09:59:45;;;;;;;14.15;5.13;;;;;;;;;;5026786;28;20041;-65
2024/03/19 10:02:18;;;;;;;10.20;5.35;;;;;;;;;;5025074;28;20045;-65
2024/03/19 10:04:50;;;;;;;9.95;5.22;;;;;;;;;;5023923;28;20044;-65
2024/03/19 10:07:18;;;;;;;16.10;5.82;;;;;;;;;;5023404;28;20050;-65
2024/03/19 10:09:45;;;;;;;10.48;4.47;;;;;;;;;;5024816;28;20713;-65
2024/03/19 10:12:11;;;;;;;9.85;4.05;;;;;;;;;;5026455;28;20496;-65
2024/03/19 10:14:38;;;;;;;12.90;5.32;;;;;;;;;;5023292;28;20095;-65
2024/03/19 10:17:05;;;;;;;9.18;4.00;;;;;;;;;;5027497;28;20041;-65
2024/03/19 10:19:31;;;;;;;9.70;5.10;;;;;;;;;;5024695;28;20096;-65
2024/03/19 10:21:59;;;;;;;7.82;4.05;;;;;;;;;;5020713;28;20451;-65
2024/03/19 10:24:25;;;;;;;10.38;3.85;;;;;;;;;;5026362;28;20422;-68
2024/03/19 10:26:53;;;;;;;7.10;3.67;;;;;;;;;;5025671;28;20044;-65
2024/03/19 10:29:19;;;;;;;8.95;4.03;;;;;;;;;;5024176;28;20061;-65
2024/03/19 10:31:48;;;;;;;9.77;3.22;;;;;;;;;;5024082;28;21623;-66
2024/03/19 10:34:18;;;;;;;9.25;3.55;;;;;;;;;;5026531;28;20051;-65
2024/03/19 10:36:47;;;;;;;6.85;2.47;;;;;;;;;;5024024;28;20041;-65
2024/03/19 10:39:15;;;;;;;7.13;2.08;;;;;;;;;;5024594;28;20076;-66
2024/03/19 10:41:42;;;;;;;6.68;1.98;;;;;;;;;;5028717;28;20061;-65
2024/03/19 10:44:12;;;;;;;4.97;2.13;;;;;;;;;;5023511;28;20041;-65
2024/03/19 10:46:39;;;;;;;6.68;1.73;;;;;;;;;;5021361;28;20649;-65
2024/03/19 10:49:06;;;;;;;4.88;1.73;;;;;;;;;;5025471;28;20037;-65
2024/03/19 10:51:33;;;;;;;6.82;1.90;;;;;;;;;;5028971;28;20091;-65
2024/03/19 10:53:59;;;;;;;8.20;2.28;;;;;;;;;;5023275;28;20095;-66
2024/03/19 10:56:26;;;;;;;6.78;2.13;;;;;;;;;;5024599;28;20083;-65
2024/03/19 10:58:52;;;;;;;9.50;2.72;;;;;;;;;;5022142;28;20041;-66
2024/03/19 11:01:18;;;;;;;7.82;3.08;;;;;;;;;;5027696;28;20132;-65
2024/03/19 11:03:44;;;;;;;7.78;4.10;;;;;;;;;;5027154;28;20045;-65
2024/03/19 11:06:22;;;;;;;10.90;3.58;;;;;;;;;;5020394;28;20060;-65
2024/03/19 11:08:54;;;;;;;7.38;3.60;;;;;;;;;;5023848;28;20116;-67
2024/03/19 11:11:20;;;;;;;8.25;3.90;;;;;;;;;;5023435;28;20080;-65
2024/03/19 11:13:53;;;;;;;12.80;3.90;;;;;;;;;;5023735;28;20030;-65
2024/03/19 11:16:21;;;;;;;8.68;4.32;;;;;;;;;;5024608;28;20137;-66
2024/03/19 11:18:51;;;;;;;11.30;4.20;;;;;;;;;;5024307;28;20059;-65
2024/03/19 11:21:18;;;;;;;9.95;3.63;;;;;;;;;;5023701;28;20048;-65
2024/03/19 11:23:46;;;;;;;6.72;2.80;;;;;;;;;;5022479;28;20037;-65
2024/03/19 11:26:14;;;;;;;9.18;3.85;;;;;;;;;;5021289;28;20121;-65
2024/03/19 11:28:41;;;;;;;11.20;3.60;;;;;;;;;;5023737;28;20102;-64
2024/03/19 11:31:07;;;;;;;9.90;3.80;;;;;;;;;;5022545;28;20111;-65
2024/03/19 11:33:34;;;;;;;11.50;3.75;;;;;;;;;;5021309;28;20142;-65
2024/03/19 11:36:00;;;;;;;7.38;3.30;;;;;;;;;;5012780;28;20103;-64
2024/03/19 11:38:29;;;;;;;8.98;4.05;;;;;;;;;;5019865;28;20045;-65
2024/03/19 11:40:56;;;;;;;8.20;3.53;;;;;;;;;;5020253;28;20623;-65
2024/03/19 11:43:22;;;;;;;7.18;3.90;;;;;;;;;;5021339;28;20048;-64
2024/03/19 11:45:48;;;;;;;13.40;4.07;;;;;;;;;;5022030;28;20223;-64
2024/03/19 11:48:16;;;;;;;7.45;3.63;;;;;;;;;;5023620;28;20033;-65
2024/03/19 11:50:49;;;;;;;7.63;3.78;;;;;;;;;;5021102;28;20057;-65
2024/03/19 11:53:21;;;;;;;9.23;3.78;;;;;;;;;;5022780;28;20370;-65
2024/03/19 11:55:49;;;;;;;8.35;3.55;;;;;;;;;;5017813;28;20045;-65
2024/03/19 11:58:15;;;;;;;7.75;4.07;;;;;;;;;;5021289;28;20049;-65
2024/03/19 12:00:42;;;;;;;10.02;3.78;;;;;;;;;;5019340;28;20057;-64
2024/03/19 12:03:08;;;;;;;9.70;4.30;;;;;;;;;;5021353;28;20060;-64
2024/03/19 12:05:34;;;;;;;6.80;4.05;;;;;;;;;;5022107;28;20065;-64
2024/03/19 12:08:01;;;;;;;10.38;4.32;;;;;;;;;;5019014;28;20541;-64
2024/03/19 12:10:28;;;;;;;9.57;4.15;;;;;;;;;;5024043;28;20072;-64
2024/03/19 12:12:55;;;;;;;7.45;3.67;;;;;;;;;;5022232;28;20064;-64
2024/03/19 12:15:22;;;;;;;8.32;3.95;;;;;;;;;;5021985;28;20076;-64
2024/03/19 12:17:49;;;;;;;10.15;4.03;;;;;;;;;;5022349;28;20045;-64
2024/03/19 12:20:16;;;;;;;9.73;4.47;;;;;;;;;;5024632;28;20405;-64
2024/03/19 12:22:46;;;;;;;8.25;4.47;;;;;;;;;;5023249;28;20416;-64
2024/03/19 12:25:12;;;;;;;10.48;4.30;;;;;;;;;;5025798;28;20374;-64
2024/03/19 12:27:40;;;;;;;9.48;4.47;;;;;;;;;;5027126;28;20065;-64
2024/03/19 12:30:11;;;;;;;11.00;4.65;;;;;;;;;;5024534;28;20539;-64
2024/03/19 12:32:47;;;;;;;8.00;4.28;;;;;;;;;;5025785;28;20053;-64
2024/03/19 12:35:13;;;;;;;8.73;4.18;;;;;;;;;;5027281;28;20057;-64
2024/03/19 12:37:39;;;;;;;9.88;4.45;;;;;;;;;;5026029;28;20045;-65
2024/03/19 12:40:10;;;;;;;11.32;4.10;;;;;;;;;;5034967;28;20084;-64
2024/03/19 12:42:36;;;;;;;11.20;4.53;;;;;;;;;;5029008;28;20053;-64
2024/03/19 12:45:03;;;;;;;13.95;4.60;;;;;;;;;;5028797;28;20107;-64
2024/03/19 12:47:29;;;;;;;13.18;4.38;;;;;;;;;;5027896;28;20053;-65
2024/03/19 12:49:55;;;;;;;10.68;4.70;;;;;;;;;;5020235;28;20044;-64
2024/03/19 12:52:23;;;;;;;11.63;4.60;;;;;;;;;;5030968;28;20053;-65
2024/03/19 12:54:49;;;;;;;12.18;4.82;;;;;;;;;;5030824;28;20187;-65
2024/03/19 12:57:15;;;;;;;11.50;5.40;;;;;;;;;;5026433;28;20067;-65
2024/03/19 12:59:43;;;;;;;8.73;4.60;;;;;;;;;;5023461;28;20052;-65
2024/03/19 13:02:10;;;;;;;11.30;5.75;;;;;;;;;;5031536;28;20056;-65
2024/03/19 13:04:36;;;;;;;10.73;5.30;;;;;;;;;;5027846;28;20489;-65
2024/03/19 13:07:02;;;;;;;10.95;5.38;;;;;;;;;;5020849;28;20033;-64
2024/03/19 13:09:29;;;;;;;12.15;5.88;;;;;;;;;;5026371;28;20050;-65
2024/03/19 13:11:55;;;;;;;12.80;5.90;;;;;;;;;;5031962;28;20088;-64
2024/03/19 13:14:21;;;;;;;11.20;6.05;;;;;;;;;;5030003;28;20068;-65
2024/03/19 13:16:48;;;;;;;11.82;5.78;;;;;;;;;;5030695;28;20454;-65
2024/03/19 13:19:14;;;;;;;9.63;5.13;;;;;;;;;;5024956;28;20118;-65
2024/03/19 13:21:41;;;;;;;12.43;5.20;;;;;;;;;;5021957;28;20105;-65
2024/03/19 13:24:08;;;;;;;10.93;5.78;;;;;;;;;;5021492;28;20045;-64
2024/03/19 13:26:34;;;;;;;14.55;6.10;;;;;;;;;;5021393;28;20095;-65
2024/03/19 13:29:00;;;;;;;11.13;5.95;;;;;;;;;;5023877;28;20053;-64
2024/03/19 13:31:27;;;;;;;11.57;6.18;;;;;;;;;;5020873;28;20052;-65
2024/03/19 13:33:53;;;;;;;12.70;6.55;;;;;;;;;;5021671;28;20045;-65
2024/03/19 13:36:19;;;;;;;12.57;6.07;;;;;;;;;;5023768;28;20671;-65
2024/03/19 13:38:48;;;;;;;12.55;5.22;;;;;;;;;;5024614;28;20152;-64
2024/03/19 13:41:15;;;;;;;10.50;6.00;;;;;;;;;;5028572;28;20123;-65
2024/03/19 13:43:42;;;;;;;9.13;5.53;;;;;;;;;;5027184;28;20037;-65
2024/03/19 13:46:08;;;;;;;9.27;6.15;;;;;;;;;;5025762;28;20049;-65
2024/03/19 13:48:35;;;;;;;12.82;5.90;;;;;;;;;;5024009;28;20416;-65
2024/03/19 13:51:01;;;;;;;12.63;5.70;;;;;;;;;;5005512;28;20045;-65
2024/03/19 13:53:28;;;;;;;12.60;5.75;;;;;;;;;;5016603;28;20103;-65
2024/03/19 13:55:55;;;;;;;10.95;6.15;;;;;;;;;;5018227;28;20052;-65
2024/03/19 13:58:21;;;;;;;12.20;6.15;;;;;;;;;;5024188;28;20103;-65
2024/03/19 14:00:48;;;;;;;14.48;6.22;;;;;;;;;;5022212;28;20489;-65
2024/03/19 14:03:15;;;;;;;14.52;6.68;;;;;;;;;;5020699;28;20056;-68
2024/03/19 14:05:43;;;;;;;15.10;6.18;;;;;;;;;;5022902;28;20126;-64
2024/03/19 14:08:10;;;;;;;16.70;6.47;;;;;;;;;;5022468;28;20064;-65
2024/03/19 14:10:37;;;;;;;12.02;6.10;;;;;;;;;;5018678;28;20053;-65
2024/03/19 14:13:04;;;;;;;23.23;7.53;;;;;;;;;;5026664;28;20045;-64
2024/03/19 14:15:31;;;;;;;13.27;6.32;;;;;;;;;;5023526;28;20140;-64
2024/03/19 14:17:57;;;;;;;13.90;6.50;;;;;;;;;;5009054;28;20131;-65
2024/03/19 14:20:24;;;;;;;12.23;6.53;;;;;;;;;;5028710;28;20044;-64
2024/03/19 14:22:52;;;;;;;10.32;6.20;;;;;;;;;;5024818;28;20047;-65